createdAt,value
2016-07-25T00:00:41.212Z,0
2016-07-25T00:01:41.221Z,0
2016-07-25T00:02:41.190Z,0
2016-07-25T00:03:41.951Z,0
2016-07-25T00:04:41.881Z,0
2016-07-25T00:05:41.891Z,0
2016-07-25T00:06:41.157Z,0
2016-07-25T00:07:41.908Z,0
2016-07-25T00:08:41.843Z,0
2016-07-25T00:09:41.224Z,0
2016-07-25T00:10:41.848Z,0
2016-07-25T00:11:41.837Z,0
2016-07-25T00:12:41.832Z,0
2016-07-25T00:13:41.160Z,0
2016-07-25T00:14:41.091Z,0
2016-07-25T00:15:41.788Z,0
2016-07-25T00:16:40.358Z,0
2016-07-25T00:17:40.371Z,0
2016-07-25T00:18:41.107Z,0
2016-07-25T00:19:41.052Z,0
2016-07-25T00:20:41.092Z,0
2016-07-25T00:21:41.758Z,0
2016-07-25T00:22:41.740Z,0
2016-07-25T00:23:41.726Z,0
2016-07-25T00:24:41.728Z,0
2016-07-25T00:25:40.992Z,0
2016-07-25T00:26:41.691Z,0
2016-07-25T00:27:41.000Z,0
2016-07-25T00:28:40.950Z,0
2016-07-25T00:29:41.666Z,0
2016-07-25T00:30:41.660Z,0
2016-07-25T00:31:41.640Z,0
2016-07-25T00:32:40.941Z,0
2016-07-25T00:33:40.911Z,0
2016-07-25T00:34:41.646Z,0
2016-07-25T00:35:41.619Z,0
2016-07-25T00:36:41.620Z,0
2016-07-25T00:37:41.598Z,0
2016-07-25T00:38:41.596Z,0
2016-07-25T00:39:41.587Z,0
2016-07-25T00:40:41.581Z,0
2016-07-25T00:41:41.579Z,0
2016-07-25T00:42:41.585Z,0
2016-07-25T00:43:40.119Z,0
2016-07-25T00:44:40.841Z,0
2016-07-25T00:45:41.540Z,0
2016-07-25T00:46:41.577Z,0
2016-07-25T00:47:41.532Z,0
2016-07-25T00:48:41.520Z,0
2016-07-25T00:49:40.067Z,0
2016-07-25T00:50:40.780Z,0
2016-07-25T00:51:41.479Z,0
2016-07-25T00:52:40.750Z,0
2016-07-25T00:53:40.751Z,0
2016-07-25T00:54:41.505Z,0
2016-07-25T00:55:40.721Z,0
2016-07-25T00:56:41.437Z,0
2016-07-25T00:57:39.991Z,0
2016-07-25T00:58:41.459Z,0
2016-07-25T00:59:41.408Z,0
2016-07-25T01:00:41.429Z,0
2016-07-25T01:01:40.685Z,0
2016-07-25T01:02:41.375Z,0
2016-07-25T01:03:41.367Z,0
2016-07-25T01:04:40.659Z,0
2016-07-25T01:05:41.367Z,0
2016-07-25T01:06:41.379Z,0
2016-07-25T01:07:40.621Z,0
2016-07-25T01:08:40.637Z,0
2016-07-25T01:09:40.610Z,0
2016-07-25T01:10:41.310Z,0
2016-07-25T01:11:40.648Z,0
2016-07-25T01:12:40.580Z,0
2016-07-25T01:13:41.299Z,0
2016-07-25T01:14:41.280Z,0
2016-07-25T01:15:41.254Z,0
2016-07-25T01:16:41.267Z,0
2016-07-25T01:17:40.688Z,0
2016-07-25T01:18:40.549Z,0
2016-07-25T01:19:40.527Z,0
2016-07-25T01:20:41.229Z,0
2016-07-25T01:21:39.848Z,0
2016-07-25T01:22:41.207Z,0
2016-07-25T01:23:40.489Z,0
2016-07-25T01:24:41.205Z,0
2016-07-25T01:25:41.188Z,0
2016-07-25T01:26:40.467Z,0
2016-07-25T01:27:41.177Z,0
2016-07-25T01:28:40.465Z,0
2016-07-25T01:29:40.470Z,0
2016-07-25T01:30:41.126Z,0
2016-07-25T01:31:41.166Z,0
2016-07-25T01:32:40.408Z,0
2016-07-25T01:33:40.489Z,0
2016-07-25T01:34:41.089Z,0
2016-07-25T01:35:41.109Z,0
2016-07-25T01:36:41.080Z,0
2016-07-25T01:37:41.167Z,0
2016-07-25T01:38:40.335Z,0
2016-07-25T01:39:41.088Z,0
2016-07-25T01:40:40.327Z,0
2016-07-25T01:41:41.077Z,0
2016-07-25T01:42:41.029Z,0
2016-07-25T01:43:41.029Z,0
2016-07-25T01:44:40.303Z,0
2016-07-25T01:45:41.020Z,0
2016-07-25T01:46:40.280Z,0
2016-07-25T01:47:40.282Z,0
2016-07-25T01:48:40.986Z,0
2016-07-25T01:49:41.155Z,0
2016-07-25T01:50:40.954Z,0
2016-07-25T01:51:40.983Z,0
2016-07-25T01:52:40.920Z,0
2016-07-25T01:53:40.930Z,0
2016-07-25T01:54:40.930Z,0
2016-07-25T01:55:38.759Z,0
2016-07-25T01:56:40.909Z,0
2016-07-25T01:57:40.168Z,0
2016-07-25T01:58:40.891Z,0
2016-07-25T01:59:40.869Z,0
2016-07-25T02:00:40.860Z,0
2016-07-25T02:01:40.129Z,0
2016-07-25T02:02:39.438Z,0
2016-07-25T02:03:40.829Z,0
2016-07-25T02:04:40.111Z,0
2016-07-25T02:05:40.819Z,0
2016-07-25T02:06:40.813Z,0
2016-07-25T02:07:40.798Z,0
2016-07-25T02:08:40.786Z,0
2016-07-25T02:09:40.776Z,0
2016-07-25T02:10:40.777Z,0
2016-07-25T02:11:40.049Z,0
2016-07-25T02:12:39.334Z,0
2016-07-25T02:13:40.761Z,0
2016-07-25T02:14:40.737Z,0
2016-07-25T02:15:40.728Z,0
2016-07-25T02:16:40.706Z,0
2016-07-25T02:17:40.713Z,0
2016-07-25T02:18:39.999Z,0
2016-07-25T02:19:40.688Z,0
2016-07-25T02:20:40.024Z,0
2016-07-25T02:21:39.250Z,0
2016-07-25T02:22:40.690Z,0
2016-07-25T02:23:40.658Z,0
2016-07-25T02:24:39.267Z,0
2016-07-25T02:25:40.637Z,0
2016-07-25T02:26:39.969Z,0
2016-07-25T02:27:39.980Z,0
2016-07-25T02:28:39.211Z,0
2016-07-25T02:29:39.900Z,0
2016-07-25T02:30:39.867Z,0
2016-07-25T02:31:39.890Z,0
2016-07-25T02:32:40.581Z,0
2016-07-25T02:33:39.849Z,0
2016-07-25T02:34:39.841Z,0
2016-07-25T02:35:40.551Z,0
2016-07-25T02:36:40.616Z,0
2016-07-25T02:37:39.824Z,0
2016-07-25T02:38:39.810Z,0
2016-07-25T02:39:39.080Z,0
2016-07-25T02:40:40.560Z,0
2016-07-25T02:41:39.789Z,0
2016-07-25T02:42:40.475Z,0
2016-07-25T02:43:39.770Z,0
2016-07-25T02:44:40.487Z,0
2016-07-25T02:45:40.459Z,0
2016-07-25T02:46:40.499Z,0
2016-07-25T02:47:39.015Z,0
2016-07-25T02:48:40.501Z,0
2016-07-25T02:49:40.445Z,0
2016-07-25T02:50:38.989Z,0
2016-07-25T02:51:39.035Z,0
2016-07-25T02:52:40.397Z,0
2016-07-25T02:53:39.690Z,0
2016-07-25T02:54:39.707Z,0
2016-07-25T02:55:39.009Z,0
2016-07-25T02:56:39.648Z,0
2016-07-25T02:57:40.414Z,0
2016-07-25T02:58:38.917Z,0
2016-07-25T02:59:39.619Z,0
2016-07-25T03:00:40.316Z,0
2016-07-25T03:01:39.673Z,0
2016-07-25T03:02:39.584Z,0
2016-07-25T03:03:39.719Z,0
2016-07-25T03:04:40.289Z,0
2016-07-25T03:05:40.336Z,0
2016-07-25T03:06:38.911Z,0
2016-07-25T03:07:39.540Z,0
2016-07-25T03:08:39.540Z,0
2016-07-25T03:09:38.830Z,0
2016-07-25T03:10:40.235Z,0
2016-07-25T03:11:40.268Z,0
2016-07-25T03:12:40.210Z,0
2016-07-25T03:13:39.570Z,0
2016-07-25T03:14:39.469Z,0
2016-07-25T03:15:40.236Z,0
2016-07-25T03:16:40.180Z,0
2016-07-25T03:17:39.450Z,0
2016-07-25T03:18:40.149Z,0
2016-07-25T03:19:40.149Z,0
2016-07-25T03:20:40.126Z,0
2016-07-25T03:21:40.150Z,0
2016-07-25T03:22:39.389Z,0
2016-07-25T03:23:38.678Z,0
2016-07-25T03:24:39.389Z,0
2016-07-25T03:25:39.367Z,0
2016-07-25T03:26:40.089Z,0
2016-07-25T03:27:40.112Z,0
2016-07-25T03:28:40.056Z,0
2016-07-25T03:29:40.064Z,0
2016-07-25T03:30:39.319Z,0
2016-07-25T03:31:39.326Z,0
2016-07-25T03:32:38.793Z,0
2016-07-25T03:33:39.306Z,0
2016-07-25T03:34:39.999Z,0
2016-07-25T03:35:40.003Z,0
2016-07-25T03:36:39.976Z,0
2016-07-25T03:37:39.968Z,0
2016-07-25T03:38:38.569Z,0
2016-07-25T03:39:38.516Z,0
2016-07-25T03:40:39.947Z,0
2016-07-25T03:41:39.947Z,0
2016-07-25T03:42:39.288Z,0
2016-07-25T03:43:38.500Z,0
2016-07-25T03:44:37.758Z,0
2016-07-25T03:45:39.179Z,0
2016-07-25T03:46:39.190Z,0
2016-07-25T03:47:39.171Z,0
2016-07-25T03:48:39.870Z,0
2016-07-25T03:49:39.145Z,0
2016-07-25T03:50:38.488Z,0
2016-07-25T03:51:39.919Z,0
2016-07-25T03:52:39.166Z,0
2016-07-25T03:53:39.107Z,0
2016-07-25T03:54:39.129Z,0
2016-07-25T03:55:39.810Z,0
2016-07-25T03:56:39.125Z,0
2016-07-25T03:57:39.079Z,0
2016-07-25T03:58:39.090Z,5
2016-07-25T03:59:39.779Z,5
2016-07-25T04:00:39.063Z,5
2016-07-25T04:01:39.056Z,5
2016-07-25T04:02:39.037Z,5
2016-07-25T04:03:39.027Z,5
2016-07-25T04:04:38.995Z,5
2016-07-25T04:05:38.986Z,5
2016-07-25T04:06:37.553Z,5
2016-07-25T04:07:38.979Z,5
2016-07-25T04:08:38.246Z,5
2016-07-25T04:09:38.947Z,5
2016-07-25T04:10:39.666Z,5
2016-07-25T04:11:38.937Z,10
2016-07-25T04:12:39.693Z,10
2016-07-25T04:13:39.639Z,10
2016-07-25T04:14:39.699Z,10
2016-07-25T04:15:39.636Z,10
2016-07-25T04:16:38.909Z,10
2016-07-25T04:17:39.619Z,10
2016-07-25T04:18:39.593Z,10
2016-07-25T04:19:38.869Z,10
2016-07-25T04:20:38.916Z,15
2016-07-25T04:21:39.569Z,15
2016-07-25T04:22:39.565Z,15
2016-07-25T04:23:39.565Z,15
2016-07-25T04:24:38.821Z,15
2016-07-25T04:25:39.537Z,20
2016-07-25T04:26:38.100Z,20
2016-07-25T04:27:38.095Z,20
2016-07-25T04:28:39.501Z,25
2016-07-25T04:29:38.778Z,25
2016-07-25T04:30:39.480Z,25
2016-07-25T04:31:39.468Z,25
2016-07-25T04:32:39.479Z,25
2016-07-25T04:33:39.438Z,25
2016-07-25T04:34:39.438Z,25
2016-07-25T04:35:37.998Z,30
2016-07-25T04:36:39.419Z,30
2016-07-25T04:37:39.499Z,30
2016-07-25T04:38:37.330Z,30
2016-07-25T04:39:38.699Z,30
2016-07-25T04:40:38.680Z,30
2016-07-25T04:41:38.717Z,30
2016-07-25T04:42:39.370Z,30
2016-07-25T04:43:38.647Z,35
2016-07-25T04:44:39.377Z,30
2016-07-25T04:45:39.441Z,30
2016-07-25T04:46:38.623Z,30
2016-07-25T04:47:39.320Z,30
2016-07-25T04:48:39.330Z,35
2016-07-25T04:49:39.295Z,35
2016-07-25T04:50:39.316Z,35
2016-07-25T04:51:37.860Z,35
2016-07-25T04:52:39.280Z,35
2016-07-25T04:53:38.579Z,35
2016-07-25T04:54:39.269Z,40
2016-07-25T04:55:39.269Z,40
2016-07-25T04:56:37.810Z,45
2016-07-25T04:57:38.524Z,45
2016-07-25T04:58:38.509Z,45
2016-07-25T04:59:39.238Z,45
2016-07-25T05:00:39.205Z,45
2016-07-25T05:01:38.476Z,45
2016-07-25T05:02:39.198Z,45
2016-07-25T05:03:37.761Z,45
2016-07-25T05:04:37.809Z,45
2016-07-25T05:05:39.230Z,45
2016-07-25T05:06:39.137Z,45
2016-07-25T05:07:38.421Z,45
2016-07-25T05:08:38.416Z,45
2016-07-25T05:09:39.139Z,45
2016-07-25T05:10:38.457Z,45
2016-07-25T05:11:38.390Z,45
2016-07-25T05:12:39.086Z,45
2016-07-25T05:13:38.357Z,45
2016-07-25T05:14:39.067Z,45
2016-07-25T05:15:38.346Z,45
2016-07-25T05:16:39.045Z,45
2016-07-25T05:17:37.610Z,45
2016-07-25T05:18:38.317Z,45
2016-07-25T05:19:39.036Z,45
2016-07-25T05:20:39.015Z,45
2016-07-25T05:21:38.280Z,45
2016-07-25T05:22:38.307Z,50
2016-07-25T05:23:38.285Z,50
2016-07-25T05:24:39.051Z,50
2016-07-25T05:25:38.329Z,50
2016-07-25T05:26:38.956Z,50
2016-07-25T05:27:38.240Z,45
2016-07-25T05:28:38.959Z,45
2016-07-25T05:29:38.223Z,45
2016-07-25T05:30:38.929Z,45
2016-07-25T05:31:38.908Z,45
2016-07-25T05:32:38.926Z,40
2016-07-25T05:33:38.178Z,40
2016-07-25T05:34:38.898Z,40
2016-07-25T05:35:37.511Z,40
2016-07-25T05:36:38.161Z,40
2016-07-25T05:37:38.871Z,40
2016-07-25T05:38:38.137Z,40
2016-07-25T05:39:38.839Z,40
2016-07-25T05:40:38.847Z,45
2016-07-25T05:41:38.120Z,50
2016-07-25T05:42:38.836Z,55
2016-07-25T05:43:38.805Z,60
2016-07-25T05:44:38.922Z,70
2016-07-25T05:45:38.066Z,75
2016-07-25T05:46:38.766Z,75
2016-07-25T05:47:38.060Z,75
2016-07-25T05:48:38.777Z,75
2016-07-25T05:49:38.758Z,80
2016-07-25T05:50:36.598Z,80
2016-07-25T05:51:38.739Z,80
2016-07-25T05:52:38.740Z,85
2016-07-25T05:53:38.740Z,85
2016-07-25T05:54:37.276Z,85
2016-07-25T05:55:38.715Z,90
2016-07-25T05:56:38.744Z,95
2016-07-25T05:57:38.690Z,100
2016-07-25T05:58:37.957Z,105
2016-07-25T05:59:38.678Z,110
2016-07-25T06:00:37.246Z,110
2016-07-25T06:01:38.649Z,100
2016-07-25T06:02:38.649Z,95
2016-07-25T06:03:38.636Z,90
2016-07-25T06:04:38.630Z,85
2016-07-25T06:05:37.210Z,90
2016-07-25T06:06:37.876Z,95
2016-07-25T06:07:36.511Z,100
2016-07-25T06:08:38.611Z,95
2016-07-25T06:09:38.009Z,90
2016-07-25T06:10:37.140Z,80
2016-07-25T06:11:37.146Z,70
2016-07-25T06:12:38.580Z,70
2016-07-25T06:13:37.950Z,65
2016-07-25T06:14:37.812Z,65
2016-07-25T06:15:36.432Z,65
2016-07-25T06:16:37.818Z,65
2016-07-25T06:17:37.798Z,60
2016-07-25T06:18:36.342Z,60
2016-07-25T06:19:37.787Z,60
2016-07-25T06:20:37.045Z,55
2016-07-25T06:21:38.510Z,55
2016-07-25T06:22:37.755Z,55
2016-07-25T06:23:37.744Z,55
2016-07-25T06:24:37.751Z,60
2016-07-25T06:25:38.450Z,60
2016-07-25T06:26:38.437Z,60
2016-07-25T06:27:38.432Z,60
2016-07-25T06:28:38.401Z,65
2016-07-25T06:29:37.692Z,70
2016-07-25T06:30:36.976Z,75
2016-07-25T06:31:38.410Z,75
2016-07-25T06:32:38.382Z,75
2016-07-25T06:33:38.411Z,75
2016-07-25T06:34:38.370Z,75
2016-07-25T06:36:38.342Z,100
2016-07-25T06:37:37.611Z,105
2016-07-25T06:38:38.331Z,110
2016-07-25T06:39:38.369Z,110
2016-07-25T06:40:36.190Z,110
2016-07-25T06:41:36.870Z,120
2016-07-25T06:42:37.601Z,130
2016-07-25T06:43:38.289Z,120
2016-07-25T06:44:37.588Z,110
2016-07-25T06:45:38.270Z,115
2016-07-25T06:46:38.271Z,120
2016-07-25T06:47:38.263Z,130
2016-07-25T06:48:37.591Z,145
2016-07-25T06:49:38.241Z,155
2016-07-25T06:50:37.529Z,150
2016-07-25T06:51:37.513Z,140
2016-07-25T06:52:37.488Z,130
2016-07-25T06:53:38.199Z,130
2016-07-25T06:54:38.202Z,140
2016-07-25T06:56:36.747Z,150
2016-07-25T06:57:38.165Z,150
2016-07-25T06:58:37.530Z,160
2016-07-25T06:59:36.797Z,175
2016-07-25T07:00:37.426Z,190
2016-07-25T07:01:38.141Z,200
2016-07-25T07:02:38.141Z,225
2016-07-25T07:03:38.122Z,245
2016-07-25T07:04:37.430Z,250
2016-07-25T07:05:38.097Z,245
2016-07-25T07:06:36.674Z,235
2016-07-25T07:07:37.371Z,220
2016-07-25T07:08:37.372Z,210
2016-07-25T07:09:37.371Z,200
2016-07-25T07:10:37.351Z,190
2016-07-25T07:11:38.074Z,175
2016-07-25T07:12:38.063Z,165
2016-07-25T07:13:38.038Z,165
2016-07-25T07:14:38.091Z,175
2016-07-25T07:15:36.612Z,175
2016-07-25T07:16:38.030Z,175
2016-07-25T07:17:38.015Z,185
2016-07-25T07:18:37.283Z,180
2016-07-25T07:19:37.340Z,180
2016-07-25T07:20:37.343Z,195
2016-07-25T07:21:37.351Z,230
2016-07-25T07:22:37.267Z,260
2016-07-25T07:23:36.561Z,285
2016-07-25T07:24:37.972Z,270
2016-07-25T07:25:37.949Z,235
2016-07-25T07:26:37.228Z,220
2016-07-25T07:27:36.562Z,225
2016-07-25T07:28:37.222Z,260
2016-07-25T07:29:36.512Z,265
2016-07-25T07:30:36.498Z,255
2016-07-25T07:31:37.364Z,280
2016-07-25T07:32:37.903Z,290
2016-07-25T07:33:37.191Z,285
2016-07-25T07:34:37.880Z,295
2016-07-25T07:35:37.153Z,290
2016-07-25T07:36:37.162Z,290
2016-07-25T07:37:37.248Z,290
2016-07-25T07:38:37.879Z,300
2016-07-25T07:39:37.175Z,290
2016-07-25T07:40:37.130Z,295
2016-07-25T07:41:37.860Z,280
2016-07-25T07:42:37.115Z,300
2016-07-25T07:43:37.110Z,290
2016-07-25T07:44:37.133Z,295
2016-07-25T07:45:37.091Z,290
2016-07-25T07:46:36.379Z,285
2016-07-25T07:47:36.383Z,290
2016-07-25T07:48:37.812Z,285
2016-07-25T07:49:37.844Z,280
2016-07-25T07:50:37.063Z,280
2016-07-25T07:51:37.862Z,285
2016-07-25T07:52:37.776Z,290
2016-07-25T07:53:37.784Z,300
2016-07-25T07:54:35.611Z,315
2016-07-25T07:55:37.044Z,330
2016-07-25T07:56:37.030Z,330
2016-07-25T07:57:37.071Z,330
2016-07-25T07:59:36.313Z,340
2016-07-25T08:00:37.701Z,360
2016-07-25T08:01:36.992Z,340
2016-07-25T08:02:37.041Z,355
2016-07-25T08:03:35.175Z,360
2016-07-25T08:04:37.697Z,365
2016-07-25T08:05:36.972Z,350
2016-07-25T08:06:36.274Z,360
2016-07-25T08:07:36.963Z,370
2016-07-25T08:08:37.644Z,360
2016-07-25T08:09:36.930Z,365
2016-07-25T08:10:36.930Z,375
2016-07-25T08:11:36.214Z,350
2016-07-25T08:12:36.924Z,335
2016-07-25T08:13:36.924Z,315
2016-07-25T08:14:36.933Z,255
2016-07-25T08:15:36.189Z,215
2016-07-25T08:16:36.162Z,200
2016-07-25T08:17:36.898Z,200
2016-07-25T08:18:36.941Z,215
2016-07-25T08:19:36.870Z,255
2016-07-25T08:20:37.571Z,325
2016-07-25T08:21:36.171Z,335
2016-07-25T08:22:36.860Z,360
2016-07-25T08:24:36.899Z,335
2016-07-25T08:25:36.849Z,330
2016-07-25T08:26:36.862Z,350
2016-07-25T08:27:36.823Z,380
2016-07-25T08:28:36.080Z,385
2016-07-25T08:29:36.810Z,385
2016-07-25T08:30:37.561Z,390
2016-07-25T08:31:36.792Z,395
2016-07-25T08:32:37.520Z,400
2016-07-25T08:33:36.158Z,400
2016-07-25T08:34:37.490Z,410
2016-07-25T08:35:37.482Z,415
2016-07-25T08:36:36.812Z,480
2016-07-25T08:37:35.342Z,560
2016-07-25T08:38:36.110Z,635
2016-07-25T08:39:36.092Z,745
2016-07-25T08:40:37.463Z,805
2016-07-25T08:41:34.599Z,1060
2016-07-25T08:42:37.460Z,1255
2016-07-25T08:43:36.730Z,1230
2016-07-25T08:44:36.018Z,1190
2016-07-25T08:45:37.457Z,1215
2016-07-25T08:46:36.722Z,1255
2016-07-25T08:47:36.800Z,1260
2016-07-25T08:48:36.008Z,1270
2016-07-25T08:49:36.725Z,1285
2016-07-25T08:50:37.421Z,1235
2016-07-25T08:51:36.717Z,1230
2016-07-25T08:52:37.669Z,1260
2016-07-25T08:53:36.725Z,1295
2016-07-25T08:54:36.716Z,1360
2016-07-25T08:55:36.712Z,1275
2016-07-25T08:56:35.991Z,1310
2016-07-25T08:57:36.717Z,1375
2016-07-25T08:58:37.427Z,1010
2016-07-25T08:59:36.810Z,975
2016-07-25T09:00:37.435Z,1295
2016-07-25T09:01:36.781Z,1395
2016-07-25T09:02:36.716Z,1360
2016-07-25T09:03:37.423Z,1360
2016-07-25T09:04:36.839Z,1395
2016-07-25T09:05:37.454Z,1390
2016-07-25T09:06:35.994Z,1350
2016-07-25T09:07:35.371Z,1345
2016-07-25T09:08:37.490Z,1370
2016-07-25T09:09:36.015Z,1345
2016-07-25T09:10:36.736Z,1355
2016-07-25T09:11:36.945Z,1360
2016-07-25T09:12:37.459Z,1380
2016-07-25T09:13:36.747Z,1300
2016-07-25T09:14:36.760Z,1215
2016-07-25T09:15:37.459Z,1220
2016-07-25T09:16:36.740Z,1255
2016-07-25T09:17:37.466Z,1265
2016-07-25T09:18:36.049Z,1265
2016-07-25T09:19:36.036Z,1250
2016-07-25T09:20:37.640Z,1155
2016-07-25T09:21:36.047Z,885
2016-07-25T09:22:36.066Z,710
2016-07-25T09:23:37.487Z,760
2016-07-25T09:24:36.810Z,785
2016-07-25T09:25:36.847Z,1010
2016-07-25T09:26:37.497Z,1130
2016-07-25T09:27:36.821Z,1180
2016-07-25T09:28:36.790Z,1150
2016-07-25T09:29:37.508Z,1090
2016-07-25T09:30:36.798Z,1070
2016-07-25T09:31:37.513Z,1115
2016-07-25T09:32:36.826Z,985
2016-07-25T09:33:37.520Z,1140
2016-07-25T09:34:37.520Z,1110
2016-07-25T09:35:36.868Z,1140
2016-07-25T09:36:37.530Z,1150
2016-07-25T09:37:37.226Z,1200
2016-07-25T09:38:37.595Z,1210
2016-07-25T09:39:36.849Z,1180
2016-07-25T09:40:36.831Z,1145
2016-07-25T09:41:37.599Z,1080
2016-07-25T09:42:36.113Z,1005
2016-07-25T09:43:37.627Z,1090
2016-07-25T09:44:35.430Z,1170
2016-07-25T09:45:36.151Z,1130
2016-07-25T09:46:36.124Z,970
2016-07-25T09:47:36.872Z,1040
2016-07-25T09:48:36.216Z,1120
2016-07-25T09:49:37.590Z,1040
2016-07-25T09:50:36.230Z,935
2016-07-25T09:51:36.874Z,830
2016-07-25T09:52:36.888Z,310
2016-07-25T09:53:36.147Z,705
2016-07-25T09:54:36.880Z,990
2016-07-25T09:55:36.889Z,975
2016-07-25T09:56:37.657Z,1000
2016-07-25T09:57:37.594Z,1105
2016-07-25T09:58:37.626Z,1070
2016-07-25T09:59:37.607Z,910
2016-07-25T10:00:36.918Z,1015
2016-07-25T10:01:36.891Z,1060
2016-07-25T10:02:36.899Z,995
2016-07-25T10:03:37.629Z,1040
2016-07-25T10:04:37.636Z,890
2016-07-25T10:05:36.906Z,955
2016-07-25T10:06:36.965Z,960
2016-07-25T10:07:36.195Z,1000
2016-07-25T10:08:36.264Z,975
2016-07-25T10:09:36.930Z,925
2016-07-25T10:10:37.648Z,890
2016-07-25T10:11:36.920Z,855
2016-07-25T10:12:37.650Z,890
2016-07-25T10:13:36.939Z,965
2016-07-25T10:14:37.669Z,920
2016-07-25T10:15:37.003Z,885
2016-07-25T10:16:36.295Z,885
2016-07-25T10:17:36.958Z,850
2016-07-25T10:18:36.953Z,910
2016-07-25T10:19:37.675Z,870
2016-07-25T10:20:37.665Z,845
2016-07-25T10:21:37.659Z,835
2016-07-25T10:22:37.674Z,780
2016-07-25T10:23:36.979Z,800
2016-07-25T10:24:37.680Z,790
2016-07-25T10:25:37.667Z,775
2016-07-25T10:26:36.237Z,220
2016-07-25T10:27:37.779Z,800
2016-07-25T10:28:36.236Z,235
2016-07-25T10:29:37.730Z,745
2016-07-25T10:30:36.247Z,675
2016-07-25T10:31:36.247Z,495
2016-07-25T10:32:36.245Z,370
2016-07-25T10:33:37.671Z,360
2016-07-25T10:34:37.679Z,235
2016-07-25T10:35:36.957Z,235
2016-07-25T10:36:36.239Z,310
2016-07-25T10:37:36.298Z,280
2016-07-25T10:38:36.950Z,235
2016-07-25T10:39:36.958Z,405
2016-07-25T10:40:36.970Z,405
2016-07-25T10:41:37.660Z,415
2016-07-25T10:42:37.747Z,415
2016-07-25T10:43:36.236Z,270
2016-07-25T10:44:37.800Z,305
2016-07-25T10:45:36.955Z,285
2016-07-25T10:46:36.957Z,190
2016-07-25T10:47:37.651Z,175
2016-07-25T10:48:37.658Z,185
2016-07-25T10:49:35.517Z,200
2016-07-25T10:50:37.000Z,185
2016-07-25T10:51:36.928Z,180
2016-07-25T10:52:36.916Z,175
2016-07-25T10:53:35.517Z,195
2016-07-25T10:54:36.210Z,290
2016-07-25T10:55:36.217Z,250
2016-07-25T10:56:37.681Z,240
2016-07-25T10:57:37.627Z,380
2016-07-25T10:58:37.677Z,370
2016-07-25T10:59:36.200Z,360
2016-07-25T11:00:36.897Z,190
2016-07-25T11:01:36.187Z,190
2016-07-25T11:02:37.617Z,185
2016-07-25T11:03:37.634Z,200
2016-07-25T11:04:37.705Z,335
2016-07-25T11:05:36.172Z,210
2016-07-25T11:06:36.176Z,205
2016-07-25T11:07:36.168Z,220
2016-07-25T11:08:36.166Z,235
2016-07-25T11:09:37.597Z,380
2016-07-25T11:10:36.887Z,210
2016-07-25T11:11:36.197Z,205
2016-07-25T11:12:36.894Z,195
2016-07-25T11:13:36.195Z,175
2016-07-25T11:14:36.852Z,170
2016-07-25T11:15:36.909Z,355
2016-07-25T11:16:37.580Z,365
2016-07-25T11:17:36.130Z,370
2016-07-25T11:18:36.837Z,365
2016-07-25T11:19:36.856Z,370
2016-07-25T11:20:37.550Z,320
2016-07-25T11:21:35.453Z,245
2016-07-25T11:22:37.546Z,250
2016-07-25T11:23:37.569Z,200
2016-07-25T11:24:36.096Z,190
2016-07-25T11:25:36.821Z,180
2016-07-25T11:26:37.509Z,325
2016-07-25T11:27:36.796Z,330
2016-07-25T11:28:36.870Z,365
2016-07-25T11:29:36.800Z,360
2016-07-25T11:30:37.522Z,355
2016-07-25T11:31:36.797Z,345
2016-07-25T11:32:37.518Z,175
2016-07-25T11:33:36.071Z,245
2016-07-25T11:34:37.488Z,175
2016-07-25T11:35:37.511Z,170
2016-07-25T11:36:37.487Z,175
2016-07-25T11:37:37.490Z,340
2016-07-25T11:38:36.047Z,345
2016-07-25T11:39:36.044Z,345
2016-07-25T11:40:36.048Z,345
2016-07-25T11:41:36.770Z,345
2016-07-25T11:42:37.479Z,345
2016-07-25T11:43:36.761Z,350
2016-07-25T11:44:36.040Z,345
2016-07-25T11:45:37.456Z,350
2016-07-25T11:46:36.790Z,335
2016-07-25T11:47:36.738Z,195
2016-07-25T11:48:36.750Z,185
2016-07-25T11:49:36.720Z,320
2016-07-25T11:50:36.017Z,175
2016-07-25T11:51:36.027Z,340
2016-07-25T11:52:37.511Z,240
2016-07-25T11:53:35.997Z,335
2016-07-25T11:54:37.439Z,320
2016-07-25T11:55:37.430Z,320
2016-07-25T11:56:36.000Z,180
2016-07-25T11:57:45.147Z,320
2016-07-25T11:58:36.712Z,315
2016-07-25T11:59:36.781Z,310
2016-07-25T12:00:36.694Z,310
2016-07-25T12:01:36.751Z,310
2016-07-25T12:02:36.678Z,170
2016-07-25T12:03:35.951Z,175
2016-07-25T12:04:37.416Z,185
2016-07-25T12:05:36.700Z,195
2016-07-25T12:06:36.678Z,180
2016-07-25T12:07:37.391Z,330
2016-07-25T12:08:36.658Z,330
2016-07-25T12:09:35.228Z,315
2016-07-25T12:10:36.659Z,175
2016-07-25T12:11:37.451Z,160
2016-07-25T12:12:36.665Z,155
2016-07-25T12:13:35.986Z,160
2016-07-25T12:14:36.664Z,170
2016-07-25T12:15:36.699Z,195
2016-07-25T12:16:35.928Z,220
2016-07-25T12:17:37.440Z,185
2016-07-25T12:18:36.638Z,175
2016-07-25T12:19:36.619Z,165
2016-07-25T12:20:37.328Z,160
2016-07-25T12:21:36.677Z,155
2016-07-25T12:22:36.618Z,150
2016-07-25T12:23:37.326Z,145
2016-07-25T12:24:36.634Z,140
2016-07-25T12:25:37.353Z,140
2016-07-25T12:26:37.328Z,125
2016-07-25T12:27:36.649Z,125
2016-07-25T12:28:37.319Z,125
2016-07-25T12:29:36.622Z,125
2016-07-25T12:30:36.600Z,120
2016-07-25T12:31:37.304Z,115
2016-07-25T12:32:37.290Z,115
2016-07-25T12:33:36.610Z,110
2016-07-25T12:34:36.598Z,110
2016-07-25T12:35:37.358Z,110
2016-07-25T12:36:36.577Z,110
2016-07-25T12:37:36.583Z,110
2016-07-25T12:38:36.557Z,110
2016-07-25T12:39:37.291Z,110
2016-07-25T12:40:36.646Z,115
2016-07-25T12:41:36.564Z,115
2016-07-25T12:42:35.838Z,115
2016-07-25T12:43:36.549Z,115
2016-07-25T12:44:36.539Z,110
2016-07-25T12:45:37.229Z,110
2016-07-25T12:46:36.658Z,105
2016-07-25T12:47:37.541Z,105
2016-07-25T12:48:36.519Z,105
2016-07-25T12:49:37.233Z,100
2016-07-25T12:50:37.290Z,100
2016-07-25T12:51:35.791Z,100
2016-07-25T12:52:35.770Z,100
2016-07-25T12:53:36.501Z,100
2016-07-25T12:54:37.253Z,100
2016-07-25T12:55:35.847Z,105
2016-07-25T12:56:36.550Z,105
2016-07-25T12:57:37.174Z,100
2016-07-25T12:58:37.192Z,100
2016-07-25T12:59:37.337Z,95
2016-07-25T13:00:36.437Z,90
2016-07-25T13:01:36.447Z,85
2016-07-25T13:02:35.739Z,80
2016-07-25T13:03:35.718Z,80
2016-07-25T13:04:36.431Z,80
2016-07-25T13:05:36.439Z,75
2016-07-25T13:06:36.427Z,75
2016-07-25T13:07:36.408Z,70
2016-07-25T13:08:36.389Z,70
2016-07-25T13:09:36.417Z,70
2016-07-25T13:10:37.161Z,70
2016-07-25T13:11:36.401Z,70
2016-07-25T13:12:36.381Z,75
2016-07-25T13:13:37.106Z,70
2016-07-25T13:14:35.679Z,70
2016-07-25T13:15:37.088Z,70
2016-07-25T13:16:36.380Z,70
2016-07-25T13:17:34.919Z,75
2016-07-25T13:18:35.636Z,75
2016-07-25T13:19:37.088Z,80
2016-07-25T13:20:37.058Z,80
2016-07-25T13:21:36.335Z,80
2016-07-25T13:22:35.620Z,80
2016-07-25T13:23:35.602Z,85
2016-07-25T13:24:37.025Z,85
2016-07-25T13:25:37.039Z,90
2016-07-25T13:26:37.013Z,95
2016-07-25T13:27:36.309Z,95
2016-07-25T13:28:36.288Z,100
2016-07-25T13:29:36.289Z,105
2016-07-25T13:30:36.988Z,105
2016-07-25T13:31:36.271Z,110
2016-07-25T13:32:36.268Z,110
2016-07-25T13:33:35.548Z,110
2016-07-25T13:34:36.261Z,110
2016-07-25T13:35:36.980Z,115
2016-07-25T13:36:36.935Z,115
2016-07-25T13:37:37.001Z,115
2016-07-25T13:38:36.232Z,115
2016-07-25T13:39:36.246Z,115
2016-07-25T13:40:36.257Z,115
2016-07-25T13:41:36.977Z,115
2016-07-25T13:42:36.210Z,115
2016-07-25T13:43:36.211Z,110
2016-07-25T13:44:36.208Z,110
2016-07-25T13:45:36.901Z,110
2016-07-25T13:46:36.189Z,105
2016-07-25T13:47:35.467Z,105
2016-07-25T13:48:35.468Z,100
2016-07-25T13:49:36.907Z,100
2016-07-25T13:50:36.140Z,95
2016-07-25T13:51:36.155Z,95
2016-07-25T13:52:36.145Z,90
2016-07-25T13:53:36.150Z,90
2016-07-25T13:54:36.857Z,90
2016-07-25T13:55:36.152Z,90
2016-07-25T13:56:35.409Z,90
2016-07-25T13:57:36.153Z,90
2016-07-25T13:58:36.141Z,90
2016-07-25T13:59:35.405Z,95
2016-07-25T14:00:36.108Z,85
2016-07-25T14:01:36.102Z,80
2016-07-25T14:02:36.107Z,80
2016-07-25T14:03:36.799Z,80
2016-07-25T14:04:36.119Z,80
2016-07-25T14:05:36.081Z,75
2016-07-25T14:06:36.077Z,75
2016-07-25T14:07:36.057Z,70
2016-07-25T14:08:36.048Z,70
2016-07-25T14:09:36.770Z,65
2016-07-25T14:10:36.748Z,65
2016-07-25T14:11:36.061Z,65